Sea Thames — V2BV1 — position and weather

sailwx.info

Track history (hours):
 
Tides and Currents Weather Stations Pressure Air Temp Water Temp Dewpoint Dewpoint Depression Visibility Wind Speed Wind Dir Waves Ship Positions

Sea Thames

Last reported at 2014-Sep-21 08:19 UTC. Time now 2014-Sep-22 22:14 UTC.
Position N 49°27' E 000°33'.

Length 87 m; draft 3 m.

Type: Cargo ship. MMSI: 304933000.

Date/timePositionNaut miles runAvg speedWind from/ knotsBaromVisibWave heightAir tempDewpointWater temp
2014-Sep-21 08:19N 49°27' E 000°33'7 9.5
2014-Sep-21 07:33N 49°26' E 000°22'1110.9
2014-Sep-21 06:33N 49°26' E 000°05'9 9.2
2014-Sep-21 05:33N 49°30' W 000°08'8 7.8
2014-Sep-21 04:33N 49°32' W 000°19'293 6.1
2014-Sep-19 04:20N 45°20' W 004°01'7 9.3
2014-Sep-19 03:33N 45°13' W 003°57'12 9.5
2014-Sep-19 02:19N 45°02' W 003°52'8 9.5
2014-Sep-19 01:31N 44°55' W 003°49'101 6.1
2014-Sep-18 09:05N 43°20' W 003°02'150 4.7
2014-Sep-17 01:19N 45°50' W 002°49'92 3.9
2014-Sep-16 01:33N 47°18' W 002°09'0 0.0
2014-Sep-15 23:29N 47°18' W 002°09'  
2014-Sep-13 13:33N 50°34' E 000°16'8 7.9
2014-Sep-13 12:30N 50°37' E 000°29'7 7.5
2014-Sep-13 11:33N 50°40' E 000°38'8 8.4
2014-Sep-13 10:33N 50°45' E 000°49'2710.8
2014-Sep-13 08:03N 51°02' E 001°23'511.0
2014-Sep-13 07:33N 51°05' E 001°30'9 9.3
2014-Sep-13 06:33N 51°11' E 001°41'8 8.0
2014-Sep-13 05:33N 51°17' E 001°49'7 7.1
2014-Sep-13 04:31N 51°24' E 001°55'79 8.5
2014-Sep-12 19:16N 52°04' E 003°44'6 8.2
2014-Sep-12 18:33N 52°03' E 003°54'8 8.4
2014-Sep-12 17:33N 51°59' E 004°06'7 7.3
2014-Sep-12 16:33N 51°55' E 004°15'4 1.8
2014-Sep-12 14:24N 51°54' E 004°21'0 0.0
2014-Sep-12 08:05N 51°54' E 004°21'0 0.0
2014-Sep-12 07:12N 51°54' E 004°21'0 0.0
2014-Sep-11 22:14N 51°54' E 004°21'3 5.0
2014-Sep-11 21:33N 51°54' E 004°27'9 9.1
2014-Sep-11 20:34N 51°51' E 004°40'9 9.2
2014-Sep-11 19:33N 51°50' E 004°55'1010.3
2014-Sep-11 18:33N 51°49' E 005°12'9 8.8
2014-Sep-11 17:33N 51°52' E 005°25'1310.2
2014-Sep-11 16:18N 51°53' E 005°46'  
Track history (hours):
 
Tides and Currents Weather Stations Pressure Air Temp Water Temp Dewpoint Dewpoint Depression Visibility Wind Speed Wind Dir Waves Ship Positions

Sea Thames

Last reported at 2014-Sep-21 08:19 UTC. Time now 2014-Sep-22 22:14 UTC.
Position N 49°27' E 000°33'.

Length 87 m; draft 3 m.

Type: Cargo ship. MMSI: 304933000.

Date/timePositionNaut miles runAvg speedWind from/ knotsBaromVisibWave heightAir tempDewpointWater temp
2014-Sep-21 08:19N 49°27' E 000°33'7 9.5
2014-Sep-21 07:33N 49°26' E 000°22'1110.9
2014-Sep-21 06:33N 49°26' E 000°05'9 9.2
2014-Sep-21 05:33N 49°30' W 000°08'8 7.8
2014-Sep-21 04:33N 49°32' W 000°19'293 6.1
2014-Sep-19 04:20N 45°20' W 004°01'7 9.3
2014-Sep-19 03:33N 45°13' W 003°57'12 9.5
2014-Sep-19 02:19N 45°02' W 003°52'8 9.5
2014-Sep-19 01:31N 44°55' W 003°49'101 6.1
2014-Sep-18 09:05N 43°20' W 003°02'150 4.7
2014-Sep-17 01:19N 45°50' W 002°49'92 3.9
2014-Sep-16 01:33N 47°18' W 002°09'0 0.0
2014-Sep-15 23:29N 47°18' W 002°09'  
2014-Sep-13 13:33N 50°34' E 000°16'8 7.9
2014-Sep-13 12:30N 50°37' E 000°29'7 7.5
2014-Sep-13 11:33N 50°40' E 000°38'8 8.4
2014-Sep-13 10:33N 50°45' E 000°49'2710.8
2014-Sep-13 08:03N 51°02' E 001°23'511.0
2014-Sep-13 07:33N 51°05' E 001°30'9 9.3
2014-Sep-13 06:33N 51°11' E 001°41'8 8.0
2014-Sep-13 05:33N 51°17' E 001°49'7 7.1
2014-Sep-13 04:31N 51°24' E 001°55'79 8.5
2014-Sep-12 19:16N 52°04' E 003°44'6 8.2
2014-Sep-12 18:33N 52°03' E 003°54'8 8.4
2014-Sep-12 17:33N 51°59' E 004°06'7 7.3
2014-Sep-12 16:33N 51°55' E 004°15'4 1.8
2014-Sep-12 14:24N 51°54' E 004°21'0 0.0
2014-Sep-12 08:05N 51°54' E 004°21'0 0.0
2014-Sep-12 07:12N 51°54' E 004°21'0 0.0
2014-Sep-11 22:14N 51°54' E 004°21'3 5.0
2014-Sep-11 21:33N 51°54' E 004°27'9 9.1
2014-Sep-11 20:34N 51°51' E 004°40'9 9.2
2014-Sep-11 19:33N 51°50' E 004°55'1010.3
2014-Sep-11 18:33N 51°49' E 005°12'9 8.8
2014-Sep-11 17:33N 51°52' E 005°25'1310.2
2014-Sep-11 16:18N 51°53' E 005°46'  

Dump ship's entire track history